Map

Track Data

SID SEASON NUMBER BASIN SUBBASIN NAME ISO_TIME NATURE LAT LON WMO_WIND WMO_PRES WMO_AGENCY TRACK_TYPE DIST2LAND LANDFALL IFLAG USA_AGENCY USA_ATCF_ID USA_LAT USA_LON USA_RECORD USA_STATUS USA_WIND USA_PRES USA_SSHS USA_R34_NE USA_R34_SE USA_R34_SW USA_R34_NW USA_R50_NE USA_R50_SE USA_R50_SW USA_R50_NW USA_R64_NE USA_R64_SE USA_R64_SW USA_R64_NW USA_POCI USA_ROCI USA_RMW USA_EYE TOKYO_LAT TOKYO_LON TOKYO_GRADE TOKYO_WIND TOKYO_PRES TOKYO_R50_DIR TOKYO_R50_LONG TOKYO_R50_SHORT TOKYO_R30_DIR TOKYO_R30_LONG TOKYO_R30_SHORT TOKYO_LAND CMA_LAT CMA_LON CMA_CAT CMA_WIND CMA_PRES HKO_LAT HKO_LON HKO_CAT HKO_WIND HKO_PRES NEWDELHI_LAT NEWDELHI_LON NEWDELHI_GRADE NEWDELHI_WIND NEWDELHI_PRES NEWDELHI_CI NEWDELHI_DP NEWDELHI_POCI REUNION_LAT REUNION_LON REUNION_TYPE REUNION_WIND REUNION_PRES REUNION_TNUM REUNION_CI REUNION_RMW REUNION_R34_NE REUNION_R34_SE REUNION_R34_SW REUNION_R34_NW REUNION_R50_NE REUNION_R50_SE REUNION_R50_SW REUNION_R50_NW REUNION_R64_NE REUNION_R64_SE REUNION_R64_SW REUNION_R64_NW BOM_LAT BOM_LON BOM_TYPE BOM_WIND BOM_PRES BOM_TNUM BOM_CI BOM_RMW BOM_R34_NE BOM_R34_SE BOM_R34_SW BOM_R34_NW BOM_R50_NE BOM_R50_SE BOM_R50_SW BOM_R50_NW BOM_R64_NE BOM_R64_SE BOM_R64_SW BOM_R64_NW BOM_ROCI BOM_POCI BOM_EYE BOM_POS_METHOD BOM_PRES_METHOD NADI_LAT NADI_LON NADI_CAT NADI_WIND NADI_PRES WELLINGTON_LAT WELLINGTON_LON WELLINGTON_WIND WELLINGTON_PRES DS824_LAT DS824_LON DS824_STAGE DS824_WIND DS824_PRES TD9636_LAT TD9636_LON TD9636_STAGE TD9636_WIND TD9636_PRES TD9635_LAT TD9635_LON TD9635_WIND TD9635_PRES TD9635_ROCI NEUMANN_LAT NEUMANN_LON NEUMANN_CLASS NEUMANN_WIND NEUMANN_PRES MLC_LAT MLC_LON MLC_CLASS MLC_WIND MLC_PRES USA_GUST BOM_GUST BOM_GUST_PER REUNION_GUST REUNION_GUST_PER USA_SEAHGT USA_SEARAD_NE USA_SEARAD_SE USA_SEARAD_SW USA_SEARAD_NW STORM_SPEED STORM_DIR
1975097S10137 1975 33 SP EA AMELIA 1975-04-06 12:00:00 TS -10.3600 137.000 30 995 bom main 187 184 O_____O__OO___ jtwc_sh SH301975 -10.4000 137.000 35 0 -10.3000 137.000 20 30 995 2.50000 -10.3000 137.000 TC 40 995 -10.4000 137.000 2 35 45 45 3 249
1975097S10137 1975 33 SP EA AMELIA 1975-04-06 15:00:00 TS -10.4053 136.876 main 184 171 P_____P__PP___ SH301975 -10.4375 136.905 32 -1 -10.3390 136.828 20 32 993 -10.3360 136.837 TC 41 993 -10.4765 136.906 2 32 3 248
1975097S10137 1975 33 SP EA AMELIA 1975-04-06 18:00:00 TS -10.4588 136.754 main 171 168 O_____P__PP_O_ jtwc_sh SH301975 -10.5000 136.800 30 -1 -10.3838 136.651 20 35 992 -10.3775 136.670 TC 42 992 -10.5524 136.800 2 30 -10.4000 136.900 TC 45 992 3 245
1975097S10137 1975 33 SP EA AMELIA 1975-04-06 21:00:00 TS -10.5305 136.604 main 168 156 P_____P__PP_P_ SH301975 -10.6000 136.673 27 -1 -10.4401 136.465 20 37 991 -10.4303 136.492 TC 43 991 -10.6271 136.669 2 27 -10.4400 136.698 TC 45 991 4 245
1975097S10137 1975 33 SP EA AMELIA 1975-04-06 23:30:00 TS -10.5933 136.457 40 990 bom main 156 156 P_____O__PP_P_ SH301975 -10.6854 136.533 25 -1 -10.5000 136.300 30 40 990 3.00000 -10.4870 136.333 TC 44 990 -10.6880 136.531 2 25 -10.4878 136.532 TC 45 990 55 55 4 247
1975097S10137 1975 33 SP EA AMELIA 1975-04-07 00:00:00 TS -10.6023 136.428 main 157 147 O_____P__OO_O_ jtwc_sh SH301975 -10.7000 136.500 25 -1 -10.5137 136.266 30 40 990 -10.5000 136.300 TC 45 990 -10.7000 136.500 1 25 -10.5000 136.500 TC 45 990 4 251
1975097S10137 1975 33 SP EA AMELIA 1975-04-07 03:00:00 TS -10.6766 136.211 main 149 145 P_____P__PP_P_ SH301975 -10.7500 136.265 22 -1 -10.6064 136.051 30 40 990 -10.5897 136.089 TC 45 990 -10.7710 136.286 1 23 -10.5925 136.307 TC 45 990 5 251
1975097S10137 1975 33 SP EA AMELIA 1975-04-07 06:00:00 TS -10.7576 135.971 main 145 145 O_____P__PP_O_ jtwc_sh SH301975 -10.8000 136.000 20 -1 -10.7105 135.825 30 40 990 -10.6925 135.865 TC 45 990 -10.8426 136.037 1 22 -10.7000 136.100 TC 45 990 5 250
1975097S10137 1975 33 SP EA AMELIA 1975-04-07 09:00:00 TS -10.8543 135.724 main 134 134 P_____P__PP_P_ SH301975 -10.8925 135.750 20 -1 -10.8166 135.593 30 40 990 -10.7991 135.633 TC 45 990 -10.9179 135.770 1 21 -10.8075 135.850 TC 45 990 5 248
1975097S10137 1975 33 SP EA AMELIA 1975-04-07 11:30:00 TS -10.9368 135.518 40 990 bom main 134 134 P_____O__PP_P_ SH301975 -10.9821 135.542 20 -1 -10.9000 135.400 30 40 990 3.00000 -10.8840 135.439 TC 45 990 -10.9857 135.545 1 20 -10.8867 135.640 TC 45 990 55 55 5 248
1975097S10137 1975 33 SP EA AMELIA 1975-04-07 12:00:00 TS -10.9520 135.477 main 123 123 O_____P__OO_O_ jtwc_sh SH301975 -11.0000 135.500 20 -1 -10.9119 135.363 30 40 990 -10.9000 135.400 TC 45 990 -11.0000 135.500 1 20 -10.9000 135.600 TC 45 990 5 251
1975097S10137 1975 33 SP EA AMELIA 1975-04-07 15:00:00 TS -11.0301 135.246 main 130 114 P_____P__PP_P_ SH301975 -11.1000 135.250 22 -1 -10.9760 135.142 30 40 990 -10.9618 135.183 TC 45 990 -11.0928 135.250 1 23 -10.9500 135.400 TC 45 990 5 251
1975097S10137 1975 33 SP EA AMELIA 1975-04-07 18:00:00 TS -11.1084 135.014 main 114 100 O_____P__PP_O_ jtwc_sh SH301975 -11.2000 135.000 25 -1 -11.0383 134.920 30 40 990 -11.0199 134.965 TC 45 990 -11.1924 135.000 1 27 -11.0000 135.200 TC 45 990 5 250
1975097S10137 1975 33 SI WA AMELIA 1975-04-07 21:00:00 TS -11.1981 134.773 main 100 89 P_____P__PP_P_ SH301975 -11.3000 134.750 30 -1 -11.1146 134.694 30 40 990 -11.0930 134.739 TC 45 990 -11.2959 134.750 1 31 -11.0850 134.957 TC 45 990 5 248
1975097S10137 1975 33 SI WA AMELIA 1975-04-07 23:30:00 TS -11.2845 134.568 40 990 bom main 89 84 P_____O__PP_P_ SH301975 -11.3833 134.542 34 0 -11.2000 134.500 30 40 990 3.00000 4 -11.1790 134.541 TC 45 990 -11.3827 134.542 1 34 -11.1787 134.743 TC 45 990 55 55 5 247
1975097S10137 1975 33 SI WA AMELIA 1975-04-08 00:00:00 TS -11.3003 134.529 main 84 68 O_____P__OO_O_ jtwc_sh SH301975 -11.4000 134.500 35 0 -11.2020 134.477 30 40 990 -11.2000 134.500 TC 45 990 -11.4000 134.500 2 35 -11.2000 134.700 TC 45 990 5 246
1975097S10137 1975 33 SI WA AMELIA 1975-04-08 03:00:00 TS -11.4007 134.299 main 68 46 P_____P__PP_P_ SH301975 -11.5000 134.250 35 0 -11.2126 134.350 30 40 990 -11.3542 134.243 TC 45 990 -11.5023 134.250 2 33 -11.3350 134.450 TC 45 990 5 244
1975097S10137 1975 33 SI WA AMELIA 1975-04-08 06:00:00 TS -11.5230 134.059 main 46 11 O_____P__PP_O_ jtwc_sh SH301975 -11.6000 134.000 35 0 -11.2874 134.186 30 40 990 -11.5478 133.971 TC 45 990 -11.6027 134.000 2 32 -11.5000 134.200 TC 45 990 6 240
1975097S10137 1975 33 SI WA AMELIA 1975-04-08 09:00:00 TS -11.6728 133.810 main 11 0 P_____P__PP_P_ SH301975 -11.7000 133.750 32 -1 -11.5196 133.897 30 40 990 -11.7674 133.688 TC 45 990 -11.7017 133.750 2 31 -11.6925 133.950 TC 45 990 6 235
1975097S10137 1975 33 SI WA AMELIA 1975-04-08 11:30:00 TS -11.8553 133.570 40 990 bom main 0 0 P_____O__PP_P_ SH301975 -11.7834 133.542 30 -1 -11.9000 133.500 30 40 990 3.00000 -11.9609 133.448 TC 45 990 -11.7837 133.542 2 30 -11.8654 133.742 TC 45 990 55 55 8 230
1975097S10137 1975 33 SI WA AMELIA 1975-04-08 12:00:00 TS -11.9182 133.509 40 990 bom main 0 0 O_____O__OO_O_ jtwc_sh SH301975 -11.8000 133.500 30 -1 -12.0000 133.400 30 40 990 -12.0000 133.400 TC 45 990 -11.8000 133.500 1 30 -11.9000 133.700 TC 45 990 55 55 11 221
1975097S10137 1975 33 SI WA AMELIA 1975-04-08 15:00:00 TS -12.3389 133.136 main 0 0 ______P_____P_ SH301975 -1 -12.4571 132.980 30 36 TC 1 -12.1025 133.450 TC 40 9 220
1975097S10137 1975 33 SI WA AMELIA 1975-04-08 18:00:00 TS -12.5952 132.925 main 0 0 ______P_____O_ -1 -12.6936 132.834 30 32 TC 1 -12.3000 133.200 TC 35 5 210
1975097S10137 1975 33 SI WA AMELIA 1975-04-08 21:00:00 NR -12.7835 132.871 main 0 0 ______P_______ -1 -12.7835 132.871 30 28 TC 1 TC 2 161
1975097S10137 1975 33 SI WA AMELIA 1975-04-09 00:00:00 NR -12.8000 133.000 25 bom main 0 ______O_______ -1 -12.8000 133.000 80 25 45 45 3 98

Digital Typhoon Data and Search

About IBTrACS Database

This database is a web-friendly format of International Best Track Archive for Climate Stewardship (IBTrACS), a global best track data archive curated by NOAA dating back to 1842.

Updated: 2021-10-08